createdAt,value
2022-11-27T00:00:02.439Z,99.99
2022-11-27T00:01:02.578Z,99.99
2022-11-27T00:02:02.849Z,99.99
2022-11-27T00:03:03.282Z,99.99
2022-11-27T00:04:03.088Z,99.99
2022-11-27T00:05:03.093Z,99.99
2022-11-27T00:06:03.023Z,99.99
2022-11-27T00:07:03.058Z,99.99
2022-11-27T00:08:02.759Z,99.99
2022-11-27T00:09:02.617Z,99.99
2022-11-27T00:10:03.005Z,99.99
2022-11-27T00:11:03.121Z,99.99
2022-11-27T00:12:03.083Z,99.99
2022-11-27T00:13:03.372Z,99.99
2022-11-27T00:14:03.280Z,99.99
2022-11-27T00:15:03.010Z,99.99
2022-11-27T00:16:03.705Z,99.99
2022-11-27T00:17:02.861Z,99.99
2022-11-27T00:18:02.582Z,99.99
2022-11-27T00:19:02.468Z,99.99
2022-11-27T00:20:02.361Z,99.99
2022-11-27T00:21:02.664Z,99.99
2022-11-27T00:22:02.901Z,99.99
2022-11-27T00:23:02.922Z,99.99
2022-11-27T00:24:02.648Z,99.99
2022-11-27T00:25:03.201Z,99.99
2022-11-27T00:26:03.110Z,99.99
2022-11-27T00:27:03.531Z,99.99
2022-11-27T00:28:03.298Z,99.99
2022-11-27T00:29:03.456Z,99.99
2022-11-27T00:30:02.998Z,99.99
2022-11-27T00:31:03.500Z,99.99
2022-11-27T00:32:03.151Z,99.99
2022-11-27T00:33:03.622Z,99.99
2022-11-27T00:34:03.663Z,99.99
2022-11-27T00:35:03.691Z,99.99
2022-11-27T00:36:03.503Z,99.99
2022-11-27T00:37:03.230Z,99.99
2022-11-27T00:38:03.371Z,99.99
2022-11-27T00:39:03.656Z,99.99
2022-11-27T00:40:03.489Z,99.99
2022-11-27T00:41:03.210Z,99.99
2022-11-27T00:42:02.705Z,99.99
2022-11-27T00:43:03.070Z,99.99
2022-11-27T00:44:03.096Z,99.99
2022-11-27T00:45:02.960Z,99.99
2022-11-27T00:46:02.723Z,99.99
2022-11-27T00:47:02.871Z,99.99
2022-11-27T00:48:03.149Z,99.99
2022-11-27T00:49:03.179Z,99.99
2022-11-27T00:50:03.221Z,99.99
2022-11-27T00:51:02.723Z,99.99
2022-11-27T00:52:03.766Z,99.99
2022-11-27T00:53:03.524Z,99.99
2022-11-27T00:54:03.236Z,99.99
2022-11-27T00:55:03.187Z,99.99
2022-11-27T00:56:03.674Z,99.99
2022-11-27T00:57:02.736Z,99.96
2022-11-27T00:58:03.136Z,99.86
2022-11-27T00:59:02.466Z,99.86
2022-11-27T01:00:02.853Z,99.96
2022-11-27T01:01:02.770Z,99.96
2022-11-27T01:02:01.823Z,99.96
2022-11-27T01:03:02.303Z,99.76
2022-11-27T01:04:01.784Z,99.76
2022-11-27T01:05:02.206Z,99.76
2022-11-27T01:06:02.196Z,99.55
2022-11-27T01:07:02.402Z,99.55
2022-11-27T01:08:02.468Z,99.44
2022-11-27T01:09:02.363Z,99.65
2022-11-27T01:10:02.463Z,99.55
2022-11-27T01:11:02.030Z,99.55
2022-11-27T01:12:02.578Z,99.55
2022-11-27T01:13:02.349Z,99.44
2022-11-27T01:14:02.741Z,99.34
2022-11-27T01:15:02.333Z,99.24
2022-11-27T01:16:02.707Z,99.34
2022-11-27T01:17:01.904Z,99.34
2022-11-27T01:18:02.449Z,99.44
2022-11-27T01:19:02.130Z,99.44
2022-11-27T01:20:02.452Z,99.34
2022-11-27T01:21:02.362Z,99.24
2022-11-27T01:22:02.460Z,99.14
2022-11-27T01:23:02.683Z,99.14
2022-11-27T01:24:02.416Z,99.14
2022-11-27T01:25:02.551Z,99.24
2022-11-27T01:26:02.606Z,99.24
2022-11-27T01:27:01.845Z,99.09
2022-11-27T01:28:02.300Z,99.14
2022-11-27T01:29:02.008Z,99.09
2022-11-27T01:30:02.197Z,98.99
2022-11-27T01:31:02.403Z,98.99
2022-11-27T01:32:02.912Z,99.09
2022-11-27T01:33:02.619Z,98.99
2022-11-27T01:34:02.771Z,98.78
2022-11-27T01:35:02.605Z,98.78
2022-11-27T01:36:02.886Z,98.78
2022-11-27T01:37:02.245Z,98.68
2022-11-27T01:38:02.551Z,98.57
2022-11-27T01:39:02.716Z,98.57
2022-11-27T01:40:02.445Z,98.57
2022-11-27T01:41:02.365Z,98.57
2022-11-27T01:42:01.860Z,98.37
2022-11-27T01:43:01.906Z,98.47
2022-11-27T01:44:01.771Z,98.57
2022-11-27T01:45:02.066Z,98.53
2022-11-27T01:46:02.031Z,98.32
2022-11-27T01:47:02.190Z,98.43
2022-11-27T01:48:01.812Z,98.43
2022-11-27T01:49:01.968Z,98.11
2022-11-27T01:50:01.766Z,98.11
2022-11-27T01:51:02.095Z,98.22
2022-11-27T01:52:02.287Z,98.11
2022-11-27T01:53:01.830Z,98.22
2022-11-27T01:54:01.988Z,98.11
2022-11-27T01:55:02.027Z,97.91
2022-11-27T01:56:02.030Z,98.06
2022-11-27T01:57:02.700Z,98.16
2022-11-27T01:58:02.418Z,98.16
2022-11-27T01:59:02.284Z,98.16
2022-11-27T02:00:02.728Z,98.06
2022-11-27T02:01:02.729Z,97.96
2022-11-27T02:02:01.977Z,97.96
2022-11-27T02:03:02.404Z,97.81
2022-11-27T02:04:02.189Z,97.96
2022-11-27T02:05:02.164Z,97.96
2022-11-27T02:06:02.349Z,97.96
2022-11-27T02:07:02.487Z,98.06
2022-11-27T02:08:02.608Z,97.96
2022-11-27T02:09:03.035Z,97.85
2022-11-27T02:10:02.733Z,97.75
2022-11-27T02:11:03.029Z,97.85
2022-11-27T02:12:02.377Z,97.85
2022-11-27T02:13:01.967Z,97.75
2022-11-27T02:14:02.267Z,97.64
2022-11-27T02:15:02.183Z,97.75
2022-11-27T02:16:01.903Z,97.75
2022-11-27T02:17:02.488Z,97.75
2022-11-27T02:18:02.055Z,97.64
2022-11-27T02:19:02.341Z,97.64
2022-11-27T02:20:02.587Z,97.64
2022-11-27T02:21:02.127Z,97.64
2022-11-27T02:22:02.689Z,97.75
2022-11-27T02:23:02.313Z,97.60
2022-11-27T02:24:02.520Z,97.39
2022-11-27T02:25:02.548Z,97.33
2022-11-27T02:26:02.663Z,97.33
2022-11-27T02:27:02.179Z,97.44
2022-11-27T02:28:02.164Z,97.44
2022-11-27T02:29:02.201Z,97.33
2022-11-27T02:30:01.906Z,97.44
2022-11-27T02:31:02.185Z,97.33
2022-11-27T02:32:02.800Z,97.44
2022-11-27T02:33:02.493Z,97.54
2022-11-27T02:34:02.318Z,97.33
2022-11-27T02:35:02.798Z,97.44
2022-11-27T02:36:02.560Z,97.33
2022-11-27T02:37:01.921Z,97.33
2022-11-27T02:38:01.829Z,97.23
2022-11-27T02:39:01.916Z,97.23
2022-11-27T02:40:02.088Z,97.33
2022-11-27T02:41:01.782Z,97.33
2022-11-27T02:42:02.309Z,97.23
2022-11-27T02:43:02.091Z,97.33
2022-11-27T02:44:01.918Z,97.44
2022-11-27T02:45:02.081Z,97.23
2022-11-27T02:46:02.239Z,97.38
2022-11-27T02:47:02.087Z,97.38
2022-11-27T02:48:02.316Z,97.49
2022-11-27T02:49:02.056Z,97.49
2022-11-27T02:50:02.147Z,97.59
2022-11-27T02:51:02.183Z,97.49
2022-11-27T02:52:02.716Z,97.59
2022-11-27T02:53:02.883Z,97.59
2022-11-27T02:54:02.310Z,97.28
2022-11-27T02:55:02.300Z,97.17
2022-11-27T02:56:02.804Z,97.28
2022-11-27T02:57:02.146Z,97.28
2022-11-27T02:58:07.921Z,97.17
2022-11-27T02:59:02.255Z,97.38
2022-11-27T03:00:02.430Z,97.49
2022-11-27T03:01:02.181Z,97.49
2022-11-27T03:02:02.530Z,97.38
2022-11-27T03:03:02.971Z,97.49
2022-11-27T03:04:02.744Z,97.38
2022-11-27T03:05:02.902Z,97.49
2022-11-27T03:06:02.721Z,97.38
2022-11-27T03:07:02.984Z,97.49
2022-11-27T03:08:02.670Z,97.49
2022-11-27T03:09:02.839Z,97.49
2022-11-27T03:10:02.647Z,97.59
2022-11-27T03:11:03.090Z,97.59
2022-11-27T03:12:02.804Z,97.59
2022-11-27T03:13:02.810Z,97.69
2022-11-27T03:14:02.409Z,97.59
2022-11-27T03:15:02.767Z,97.49
2022-11-27T03:16:02.549Z,97.49
2022-11-27T03:17:02.288Z,97.59
2022-11-27T03:18:02.336Z,97.59
2022-11-27T03:19:02.510Z,97.49
2022-11-27T03:20:02.215Z,97.63
2022-11-27T03:21:02.582Z,97.69
2022-11-27T03:22:02.515Z,97.74
2022-11-27T03:23:02.840Z,97.74
2022-11-27T03:24:02.490Z,97.63
2022-11-27T03:25:02.439Z,97.74
2022-11-27T03:26:02.355Z,97.74
2022-11-27T03:27:03.193Z,97.84
2022-11-27T03:28:02.978Z,97.94
2022-11-27T03:29:03.380Z,97.94
2022-11-27T03:30:03.269Z,97.94
2022-11-27T03:31:03.167Z,97.94
2022-11-27T03:32:02.735Z,98.05
2022-11-27T03:33:02.635Z,98.05
2022-11-27T03:34:02.492Z,97.94
2022-11-27T03:35:02.500Z,97.94
2022-11-27T03:36:02.369Z,98.05
2022-11-27T03:37:03.411Z,97.94
2022-11-27T03:38:03.213Z,97.94
2022-11-27T03:39:03.064Z,97.94
2022-11-27T03:40:03.115Z,98.09
2022-11-27T03:41:03.060Z,98.09
2022-11-27T03:42:02.375Z,98.09
2022-11-27T03:43:02.490Z,98.19
2022-11-27T03:44:02.979Z,98.30
2022-11-27T03:45:02.654Z,98.40
2022-11-27T03:46:02.849Z,98.50
2022-11-27T03:47:03.215Z,98.50
2022-11-27T03:48:03.500Z,98.40
2022-11-27T03:49:03.053Z,98.40
2022-11-27T03:50:03.402Z,98.40
2022-11-27T03:51:03.240Z,98.30
2022-11-27T03:52:02.776Z,98.40
2022-11-27T03:53:02.840Z,98.61
2022-11-27T03:54:03.159Z,98.30
2022-11-27T03:55:03.015Z,98.30
2022-11-27T03:56:08.449Z,98.30
2022-11-27T03:57:02.005Z,98.30
2022-11-27T03:58:02.159Z,98.30
2022-11-27T03:59:02.023Z,98.30
2022-11-27T04:00:02.043Z,98.40
2022-11-27T04:01:02.435Z,98.40
2022-11-27T04:02:02.543Z,98.30
2022-11-27T04:03:02.506Z,98.50
2022-11-27T04:04:02.691Z,98.40
2022-11-27T04:05:02.444Z,98.19
2022-11-27T04:06:02.109Z,98.19
2022-11-27T04:07:02.829Z,98.19
2022-11-27T04:08:02.534Z,98.19
2022-11-27T04:09:02.900Z,98.09
2022-11-27T04:10:02.795Z,97.99
2022-11-27T04:11:03.167Z,97.99
2022-11-27T04:12:02.894Z,98.09
2022-11-27T04:13:02.741Z,98.09
2022-11-27T04:14:02.946Z,98.19
2022-11-27T04:15:03.187Z,98.19
2022-11-27T04:16:02.877Z,98.19
2022-11-27T04:17:02.399Z,98.30
2022-11-27T04:18:02.474Z,98.30
2022-11-27T04:19:02.421Z,98.30
2022-11-27T04:20:02.304Z,98.30
2022-11-27T04:21:02.210Z,98.40
2022-11-27T04:22:03.273Z,98.40
2022-11-27T04:23:02.788Z,98.40
2022-11-27T04:24:03.100Z,98.50
2022-11-27T04:25:02.803Z,98.40
2022-11-27T04:26:03.092Z,98.40
2022-11-27T04:27:02.274Z,98.35
2022-11-27T04:28:02.389Z,98.25
2022-11-27T04:29:02.802Z,98.25
2022-11-27T04:30:02.727Z,98.25
2022-11-27T04:31:02.203Z,98.15
2022-11-27T04:32:02.719Z,98.05
2022-11-27T04:33:02.183Z,98.05
2022-11-27T04:34:02.645Z,98.05
2022-11-27T04:35:02.704Z,97.94
2022-11-27T04:36:02.163Z,98.15
2022-11-27T04:37:02.661Z,97.94
2022-11-27T04:38:02.588Z,97.94
2022-11-27T04:39:02.791Z,97.94
2022-11-27T04:40:02.233Z,97.94
2022-11-27T04:41:02.257Z,98.05
2022-11-27T04:42:02.649Z,98.05
2022-11-27T04:43:02.535Z,98.15
2022-11-27T04:44:02.828Z,98.05
2022-11-27T04:45:02.605Z,98.05
2022-11-27T04:46:02.273Z,98.05
2022-11-27T04:47:02.249Z,98.05
2022-11-27T04:48:02.154Z,98.15
2022-11-27T04:49:01.957Z,98.00
2022-11-27T04:50:02.386Z,97.89
2022-11-27T04:51:08.303Z,97.89
2022-11-27T04:52:02.794Z,97.89
2022-11-27T04:53:02.325Z,97.89
2022-11-27T04:54:02.797Z,97.79
2022-11-27T04:55:02.726Z,98.00
2022-11-27T04:56:02.386Z,97.69
2022-11-27T04:57:02.875Z,97.59
2022-11-27T04:58:02.996Z,97.59
2022-11-27T04:59:02.816Z,97.69
2022-11-27T05:00:02.908Z,97.79
2022-11-27T05:01:02.704Z,97.79
2022-11-27T05:02:01.975Z,97.79
2022-11-27T05:03:02.036Z,97.69
2022-11-27T05:04:02.182Z,97.69
2022-11-27T05:05:01.793Z,97.79
2022-11-27T05:06:01.965Z,97.79
2022-11-27T05:07:02.220Z,97.79
2022-11-27T05:08:02.265Z,97.89
2022-11-27T05:09:02.169Z,97.69
2022-11-27T05:10:01.880Z,97.59
2022-11-27T05:11:02.293Z,97.79
2022-11-27T05:12:02.758Z,97.79
2022-11-27T05:13:02.898Z,97.69
2022-11-27T05:14:02.795Z,97.69
2022-11-27T05:15:04.619Z,97.79
2022-11-27T05:16:02.429Z,97.69
2022-11-27T05:17:02.437Z,97.79
2022-11-27T05:18:02.533Z,97.69
2022-11-27T05:19:02.916Z,97.54
2022-11-27T05:20:02.692Z,97.69
2022-11-27T05:21:02.498Z,97.64
2022-11-27T05:22:02.248Z,97.75
2022-11-27T05:23:01.838Z,97.75
2022-11-27T05:24:02.599Z,97.75
2022-11-27T05:25:02.001Z,97.64
2022-11-27T05:26:02.475Z,97.64
2022-11-27T05:27:02.409Z,97.64
2022-11-27T05:28:02.707Z,97.64
2022-11-27T05:29:02.767Z,97.64
2022-11-27T05:30:02.833Z,97.75
2022-11-27T05:31:02.514Z,97.54
2022-11-27T05:32:02.284Z,97.44
2022-11-27T05:33:02.138Z,97.54
2022-11-27T05:34:01.884Z,97.50
2022-11-27T05:35:02.072Z,97.29
2022-11-27T05:36:02.192Z,97.08
2022-11-27T05:37:02.375Z,97.08
2022-11-27T05:38:01.745Z,97.08
2022-11-27T05:39:02.155Z,97.08
2022-11-27T05:40:02.010Z,97.19
2022-11-27T05:41:02.033Z,97.39
2022-11-27T05:42:02.208Z,97.39
2022-11-27T05:43:02.094Z,97.50
2022-11-27T05:44:02.721Z,97.39
2022-11-27T05:45:02.246Z,97.50
2022-11-27T05:46:02.179Z,97.60
2022-11-27T05:47:02.680Z,97.39
2022-11-27T05:48:02.259Z,97.39
2022-11-27T05:49:02.747Z,97.39
2022-11-27T05:50:02.238Z,97.39
2022-11-27T05:51:02.400Z,97.39
2022-11-27T05:52:02.802Z,97.50
2022-11-27T05:53:03.054Z,97.39
2022-11-27T05:54:03.000Z,97.60
2022-11-27T05:55:02.247Z,97.50
2022-11-27T05:56:02.731Z,97.71
2022-11-27T05:57:01.771Z,97.91
2022-11-27T05:58:02.395Z,97.45
2022-11-27T05:59:02.349Z,97.34
2022-11-27T06:00:02.251Z,97.55
2022-11-27T06:01:02.392Z,97.76
2022-11-27T06:02:02.076Z,97.45
2022-11-27T06:03:02.755Z,97.25
2022-11-27T06:04:02.450Z,97.34
2022-11-27T06:05:02.177Z,97.25
2022-11-27T06:06:01.960Z,97.04
2022-11-27T06:07:02.783Z,97.04
2022-11-27T06:08:02.672Z,97.34
2022-11-27T06:09:05.702Z,97.66
2022-11-27T06:10:03.009Z,97.55
2022-11-27T06:11:03.000Z,97.55
2022-11-27T06:12:01.773Z,97.61
2022-11-27T06:13:01.787Z,97.61
2022-11-27T06:14:02.148Z,97.41
2022-11-27T06:15:01.920Z,97.09
2022-11-27T06:16:01.734Z,97.09
2022-11-27T06:17:02.606Z,97.20
2022-11-27T06:18:02.407Z,97.41
2022-11-27T06:19:02.077Z,97.41
2022-11-27T06:20:02.110Z,97.41
2022-11-27T06:21:02.597Z,97.51
2022-11-27T06:22:02.746Z,97.61
2022-11-27T06:23:02.452Z,97.82
2022-11-27T06:24:02.512Z,97.41
2022-11-27T06:25:02.538Z,97.20
2022-11-27T06:26:03.046Z,97.30
2022-11-27T06:27:02.272Z,97.20
2022-11-27T06:28:02.214Z,97.20
2022-11-27T06:29:02.019Z,97.30
2022-11-27T06:30:02.106Z,97.30
2022-11-27T06:31:02.123Z,97.30
2022-11-27T06:32:02.376Z,97.26
2022-11-27T06:33:02.461Z,97.26
2022-11-27T06:34:02.686Z,97.26
2022-11-27T06:35:02.397Z,96.84
2022-11-27T06:36:02.446Z,96.84
2022-11-27T06:37:01.981Z,96.84
2022-11-27T06:38:01.892Z,96.95
2022-11-27T06:39:01.938Z,97.05
2022-11-27T06:40:01.748Z,96.95
2022-11-27T06:41:02.065Z,96.84
2022-11-27T06:42:02.174Z,96.74
2022-11-27T06:43:02.551Z,96.64
2022-11-27T06:44:02.136Z,96.64
2022-11-27T06:45:02.228Z,96.84
2022-11-27T06:46:02.305Z,97.05
2022-11-27T06:47:01.715Z,97.05
2022-11-27T06:48:02.016Z,96.53
2022-11-27T06:49:01.941Z,96.53
2022-11-27T06:50:01.903Z,96.64
2022-11-27T06:51:01.770Z,96.84
2022-11-27T06:52:01.987Z,96.59
2022-11-27T06:53:02.450Z,96.49
2022-11-27T06:54:01.919Z,96.59
2022-11-27T06:55:01.946Z,96.49
2022-11-27T06:56:01.945Z,96.49
2022-11-27T06:57:02.032Z,96.18
2022-11-27T06:58:01.658Z,96.18
2022-11-27T06:59:01.473Z,96.18
2022-11-27T07:00:01.908Z,96.28
2022-11-27T07:01:02.001Z,96.18
2022-11-27T07:02:02.677Z,96.18
2022-11-27T07:03:02.991Z,96.18
2022-11-27T07:04:02.652Z,96.08
2022-11-27T07:05:02.678Z,95.98
2022-11-27T07:06:02.683Z,95.77
2022-11-27T07:07:02.230Z,95.77
2022-11-27T07:08:02.107Z,95.87
2022-11-27T07:09:02.016Z,96.08
2022-11-27T07:10:02.602Z,96.08
2022-11-27T07:11:02.044Z,96.08
2022-11-27T07:12:02.645Z,96.08
2022-11-27T07:13:02.274Z,95.98
2022-11-27T07:14:02.844Z,96.08
2022-11-27T07:15:04.382Z,95.98
2022-11-27T07:16:03.033Z,96.08
2022-11-27T07:17:01.950Z,95.93
2022-11-27T07:18:01.680Z,96.08
2022-11-27T07:19:01.899Z,95.62
2022-11-27T07:20:02.183Z,95.77
2022-11-27T07:21:02.006Z,95.87
2022-11-27T07:22:02.265Z,95.83
2022-11-27T07:23:02.500Z,95.56
2022-11-27T07:24:02.255Z,95.67
2022-11-27T07:25:01.934Z,95.87
2022-11-27T07:26:02.474Z,95.87
2022-11-27T07:27:02.612Z,95.93
2022-11-27T07:28:02.645Z,96.14
2022-11-27T07:29:02.814Z,95.73
2022-11-27T07:30:02.523Z,95.62
2022-11-27T07:31:02.336Z,95.52
2022-11-27T07:32:03.190Z,95.62
2022-11-27T07:33:02.836Z,95.42
2022-11-27T07:34:03.482Z,95.62
2022-11-27T07:35:02.912Z,95.42
2022-11-27T07:36:02.933Z,95.42
2022-11-27T07:37:02.390Z,95.42
2022-11-27T07:38:02.580Z,95.31
2022-11-27T07:39:02.125Z,95.21
2022-11-27T07:40:03.469Z,95.31
2022-11-27T07:41:02.379Z,95.21
2022-11-27T07:42:16.728Z,95.42
2022-11-27T07:43:01.973Z,95.42
2022-11-27T07:44:02.446Z,95.62
2022-11-27T07:45:02.425Z,95.37
2022-11-27T07:46:02.280Z,94.96
2022-11-27T07:47:02.023Z,94.76
2022-11-27T07:48:01.932Z,94.96
2022-11-27T07:49:01.897Z,95.06
2022-11-27T07:50:01.736Z,95.06
2022-11-27T07:51:01.939Z,94.76
2022-11-27T07:52:02.651Z,94.55
2022-11-27T07:53:02.325Z,94.55
2022-11-27T07:54:02.252Z,94.34
2022-11-27T07:55:02.498Z,94.34
2022-11-27T07:56:02.338Z,94.45
2022-11-27T07:57:01.884Z,94.30
2022-11-27T07:58:02.215Z,94.30
2022-11-27T07:59:01.848Z,94.20
2022-11-27T08:00:02.158Z,94.30
2022-11-27T08:01:01.766Z,94.09
2022-11-27T08:02:03.349Z,93.88
2022-11-27T08:03:02.988Z,93.79
2022-11-27T08:04:03.061Z,93.58
2022-11-27T08:05:06.885Z,93.68
2022-11-27T08:06:03.292Z,93.99
2022-11-27T08:07:02.975Z,93.88
2022-11-27T08:08:03.125Z,93.99
2022-11-27T08:09:02.618Z,94.09
2022-11-27T08:10:02.643Z,93.88
2022-11-27T08:11:02.727Z,93.68
2022-11-27T08:12:02.950Z,93.88
2022-11-27T08:13:02.626Z,94.09
2022-11-27T08:14:02.646Z,93.99
2022-11-27T08:15:02.704Z,93.48
2022-11-27T08:16:02.846Z,93.58
2022-11-27T08:17:02.541Z,93.48
2022-11-27T08:18:02.359Z,93.58
2022-11-27T08:19:02.413Z,93.48
2022-11-27T08:20:02.437Z,93.79
2022-11-27T08:21:02.001Z,94.09
2022-11-27T08:22:02.757Z,93.58
2022-11-27T08:23:03.197Z,93.79
2022-11-27T08:24:02.588Z,93.37
2022-11-27T08:25:02.761Z,93.16
2022-11-27T08:26:02.517Z,93.16
2022-11-27T08:27:02.820Z,93.16
2022-11-27T08:28:03.136Z,93.06
2022-11-27T08:29:02.761Z,93.43
2022-11-27T08:30:03.018Z,93.12
2022-11-27T08:31:03.068Z,93.12
2022-11-27T08:32:02.295Z,93.12
2022-11-27T08:33:02.271Z,93.12
2022-11-27T08:34:02.223Z,92.71
2022-11-27T08:35:02.653Z,92.92
2022-11-27T08:36:02.624Z,93.02
2022-11-27T08:37:02.918Z,92.61
2022-11-27T08:38:02.562Z,92.82
2022-11-27T08:39:02.632Z,92.50
2022-11-27T08:40:02.441Z,92.67
2022-11-27T08:41:03.022Z,92.10
2022-11-27T08:42:02.011Z,92.25
2022-11-27T08:43:02.094Z,92.25
2022-11-27T08:44:04.500Z,92.25
2022-11-27T08:45:02.418Z,92.46
2022-11-27T08:46:02.209Z,92.16
2022-11-27T08:47:02.427Z,92.16
2022-11-27T08:48:02.959Z,91.74
2022-11-27T08:49:02.670Z,92.05
2022-11-27T08:50:02.391Z,92.36
2022-11-27T08:51:02.950Z,92.36
2022-11-27T08:52:02.114Z,92.16
2022-11-27T08:53:02.178Z,91.74
2022-11-27T08:54:02.374Z,91.80
2022-11-27T08:55:02.466Z,91.39
2022-11-27T08:56:02.163Z,91.29
2022-11-27T08:57:02.075Z,90.98
2022-11-27T08:58:02.413Z,91.60
2022-11-27T08:59:02.305Z,91.70
2022-11-27T09:00:02.018Z,91.39
2022-11-27T09:01:02.526Z,90.88
2022-11-27T09:02:02.272Z,91.08
2022-11-27T09:03:02.564Z,90.67
2022-11-27T09:04:02.319Z,90.67
2022-11-27T09:05:02.385Z,90.78
2022-11-27T09:06:02.242Z,90.98
2022-11-27T09:07:02.237Z,90.88
2022-11-27T09:08:01.981Z,90.78
2022-11-27T09:09:02.299Z,90.57
2022-11-27T09:10:02.238Z,90.67
2022-11-27T09:11:02.063Z,90.57
2022-11-27T09:12:01.903Z,90.88
2022-11-27T09:13:02.405Z,90.78
2022-11-27T09:14:02.432Z,90.57
2022-11-27T09:15:02.426Z,90.63
2022-11-27T09:16:02.415Z,90.12
2022-11-27T09:17:02.351Z,90.22
2022-11-27T09:18:02.399Z,90.12
2022-11-27T09:19:02.817Z,90.01
2022-11-27T09:20:02.404Z,89.60
2022-11-27T09:21:02.564Z,90.01
2022-11-27T09:22:01.916Z,90.12
2022-11-27T09:23:02.238Z,90.08
2022-11-27T09:24:02.328Z,90.38
2022-11-27T09:25:02.252Z,90.38
2022-11-27T09:26:02.154Z,89.97
2022-11-27T09:27:02.502Z,89.15
2022-11-27T09:28:02.781Z,89.25
2022-11-27T09:29:02.704Z,89.25
2022-11-27T09:30:02.713Z,89.15
2022-11-27T09:31:02.711Z,89.25
2022-11-27T09:32:02.090Z,89.66
2022-11-27T09:33:02.015Z,90.28
2022-11-27T09:34:02.391Z,90.03
2022-11-27T09:35:02.040Z,89.62
2022-11-27T09:36:01.961Z,89.42
2022-11-27T09:37:02.421Z,89.01
2022-11-27T09:38:02.671Z,89.62
2022-11-27T09:39:02.580Z,88.70
2022-11-27T09:40:08.503Z,89.42
2022-11-27T09:41:03.435Z,87.88
2022-11-27T09:42:01.910Z,87.26
2022-11-27T09:43:01.756Z,87.98
2022-11-27T09:44:02.264Z,87.88
2022-11-27T09:45:01.769Z,88.08
2022-11-27T09:46:02.155Z,88.76
2022-11-27T09:47:02.337Z,88.24
2022-11-27T09:48:02.100Z,87.94
2022-11-27T09:49:02.374Z,87.53
2022-11-27T09:50:02.102Z,86.50
2022-11-27T09:51:02.679Z,86.71
2022-11-27T09:52:02.575Z,86.91
2022-11-27T09:53:02.542Z,87.12
2022-11-27T09:54:02.329Z,86.30
2022-11-27T09:55:02.821Z,86.81
2022-11-27T09:56:02.522Z,87.22
2022-11-27T09:57:02.764Z,87.02
2022-11-27T09:58:02.355Z,87.53
2022-11-27T09:59:02.495Z,87.43
2022-11-27T10:00:02.945Z,87.12
2022-11-27T10:01:02.479Z,87.22
2022-11-27T10:02:02.240Z,87.02
2022-11-27T10:03:02.652Z,87.22
2022-11-27T10:04:02.034Z,87.53
2022-11-27T10:05:17.862Z,87.32
2022-11-27T10:06:02.494Z,87.02
2022-11-27T10:07:02.845Z,86.81
2022-11-27T10:08:06.611Z,87.12
2022-11-27T10:09:02.885Z,86.71
2022-11-27T10:10:02.784Z,86.09
2022-11-27T10:11:02.974Z,86.50
2022-11-27T10:12:02.954Z,87.02
2022-11-27T10:13:03.114Z,87.22
2022-11-27T10:14:02.794Z,87.43
2022-11-27T10:15:03.043Z,87.12
2022-11-27T10:16:02.857Z,87.08
2022-11-27T10:17:03.026Z,86.36
2022-11-27T10:18:03.065Z,86.46
2022-11-27T10:19:03.085Z,86.05
2022-11-27T10:20:02.686Z,86.46
2022-11-27T10:21:02.925Z,86.87
2022-11-27T10:22:02.969Z,85.91
2022-11-27T10:23:03.149Z,85.60
2022-11-27T10:24:02.879Z,85.71
2022-11-27T10:25:02.917Z,85.80
2022-11-27T10:26:02.878Z,85.19
2022-11-27T10:27:02.125Z,84.47
2022-11-27T10:28:02.008Z,84.58
2022-11-27T10:29:02.053Z,84.78
2022-11-27T10:30:02.139Z,84.47
2022-11-27T10:31:01.772Z,84.47
2022-11-27T10:32:02.749Z,85.09
2022-11-27T10:33:02.571Z,85.50
2022-11-27T10:34:02.416Z,85.09
2022-11-27T10:35:02.395Z,85.05
2022-11-27T10:36:02.372Z,84.03
2022-11-27T10:37:02.085Z,83.82
2022-11-27T10:38:06.568Z,84.53
2022-11-27T10:39:01.977Z,85.36
2022-11-27T10:40:02.240Z,84.95
2022-11-27T10:41:02.196Z,84.53
2022-11-27T10:42:02.403Z,84.19
2022-11-27T10:43:02.234Z,84.09
2022-11-27T10:44:02.397Z,83.27
2022-11-27T10:45:02.459Z,84.29
2022-11-27T10:46:02.221Z,83.74
2022-11-27T10:47:02.606Z,83.23
2022-11-27T10:48:02.141Z,82.71
2022-11-27T10:49:02.152Z,83.50
2022-11-27T10:50:02.766Z,82.37
2022-11-27T10:51:02.763Z,81.65
2022-11-27T10:52:02.663Z,80.63
2022-11-27T10:53:02.382Z,80.90
2022-11-27T10:54:02.715Z,81.10
2022-11-27T10:55:02.186Z,81.82
2022-11-27T10:56:02.702Z,81.01
2022-11-27T10:57:02.747Z,81.31
2022-11-27T10:58:02.775Z,81.10
2022-11-27T10:59:02.803Z,79.64
2022-11-27T11:00:02.809Z,80.39
2022-11-27T11:01:02.541Z,79.57
2022-11-27T11:02:03.043Z,79.27
2022-11-27T11:03:02.866Z,80.39
2022-11-27T11:04:10.175Z,80.29
2022-11-27T11:05:31.110Z,80.29
2022-11-27T11:06:32.474Z,79.88
2022-11-27T11:07:03.032Z,79.88
2022-11-27T11:08:02.879Z,80.19
2022-11-27T11:09:02.818Z,79.43
2022-11-27T11:10:02.651Z,79.27
2022-11-27T11:11:03.095Z,79.16
2022-11-27T11:12:02.205Z,80.08
2022-11-27T11:13:02.411Z,79.68
2022-11-27T11:14:02.132Z,79.16
2022-11-27T11:15:02.398Z,80.02
2022-11-27T11:16:02.610Z,80.02
2022-11-27T11:17:03.372Z,80.22
2022-11-27T11:18:02.966Z,80.12
2022-11-27T11:19:02.937Z,80.12
2022-11-27T11:20:02.953Z,80.80
2022-11-27T11:21:03.289Z,79.98
2022-11-27T11:22:02.425Z,79.98
2022-11-27T11:23:02.042Z,80.19
2022-11-27T11:24:02.031Z,80.29
2022-11-27T11:25:01.962Z,79.88
2022-11-27T11:26:01.982Z,79.68
2022-11-27T11:27:02.661Z,79.78
2022-11-27T11:28:02.591Z,79.98
2022-11-27T11:29:02.738Z,80.29
2022-11-27T11:30:02.493Z,80.19
2022-11-27T11:31:02.504Z,78.75
2022-11-27T11:32:03.312Z,78.86
2022-11-27T11:33:03.355Z,79.37
2022-11-27T11:34:03.043Z,79.06
2022-11-27T11:35:03.028Z,78.65
2022-11-27T11:36:02.758Z,79.16
2022-11-27T11:37:02.502Z,79.68
2022-11-27T11:38:02.471Z,79.06
2022-11-27T11:39:02.508Z,78.75
2022-11-27T11:40:02.484Z,78.45
2022-11-27T11:41:02.109Z,78.55
2022-11-27T11:42:02.710Z,79.47
2022-11-27T11:43:02.478Z,79.23
2022-11-27T11:44:02.487Z,79.43
2022-11-27T11:45:02.449Z,79.74
2022-11-27T11:46:02.364Z,78.92
2022-11-27T11:47:02.742Z,78.17
2022-11-27T11:48:02.756Z,77.97
2022-11-27T11:49:02.450Z,77.97
2022-11-27T11:50:02.162Z,77.86
2022-11-27T11:51:02.279Z,78.27
2022-11-27T11:52:02.926Z,77.86
2022-11-27T11:53:02.929Z,77.86
2022-11-27T11:54:02.687Z,77.86
2022-11-27T11:55:02.648Z,78.38
2022-11-27T11:56:02.717Z,78.58
2022-11-27T11:57:03.216Z,78.58
2022-11-27T11:58:03.206Z,78.58
2022-11-27T11:59:02.930Z,78.17
2022-11-27T12:00:02.764Z,77.56
2022-11-27T12:01:26.058Z,76.53
2022-11-27T12:02:01.759Z,76.74
2022-11-27T12:03:01.963Z,77.97
2022-11-27T12:04:02.179Z,77.66
2022-11-27T12:05:02.259Z,75.82
2022-11-27T12:06:02.169Z,75.71
2022-11-27T12:07:01.741Z,76.64
2022-11-27T12:08:02.401Z,76.84
2022-11-27T12:09:01.820Z,76.98
2022-11-27T12:10:01.900Z,76.98
2022-11-27T12:11:02.086Z,76.57
2022-11-27T12:12:01.765Z,76.67
2022-11-27T12:13:02.326Z,76.57
2022-11-27T12:14:02.138Z,77.08
2022-11-27T12:15:01.831Z,77.39
2022-11-27T12:16:01.885Z,77.19
2022-11-27T12:17:01.957Z,77.08
2022-11-27T12:18:02.032Z,77.08
2022-11-27T12:19:02.022Z,76.67
2022-11-27T12:20:02.049Z,76.67
2022-11-27T12:21:01.961Z,76.88
2022-11-27T12:22:02.129Z,77.29
2022-11-27T12:23:02.366Z,77.39
2022-11-27T12:24:02.160Z,78.17
2022-11-27T12:25:02.743Z,76.84
2022-11-27T12:26:02.338Z,76.33
2022-11-27T12:27:02.143Z,75.85
2022-11-27T12:28:02.720Z,75.85
2022-11-27T12:29:02.224Z,76.06
2022-11-27T12:30:02.156Z,74.73
2022-11-27T12:31:02.820Z,75.34
2022-11-27T12:32:02.451Z,75.65
2022-11-27T12:33:02.690Z,75.89
2022-11-27T12:34:02.702Z,75.68
2022-11-27T12:35:02.819Z,75.99
2022-11-27T12:36:02.653Z,76.09
2022-11-27T12:37:02.920Z,75.89
2022-11-27T12:38:01.820Z,75.48
2022-11-27T12:39:01.892Z,75.68
2022-11-27T12:40:02.087Z,76.40
2022-11-27T12:41:02.112Z,76.50
2022-11-27T12:42:01.985Z,76.50
2022-11-27T12:43:02.530Z,76.71
2022-11-27T12:44:02.243Z,76.71
2022-11-27T12:45:02.774Z,76.71
2022-11-27T12:46:02.565Z,76.98
2022-11-27T12:47:02.254Z,76.57
2022-11-27T12:48:02.953Z,76.37
2022-11-27T12:49:02.807Z,76.71
2022-11-27T12:50:02.813Z,75.89
2022-11-27T12:51:02.921Z,75.99
2022-11-27T12:52:02.511Z,75.99